sensor_id;sensor_type;location;lat;lon;timestamp;P1;durP1;ratioP1;P2;durP2;ratioP2
26953;SDS011;14508;50.924;11.600;2022-09-09T00:01:08;8.90;;;2.45;;
26953;SDS011;14508;50.924;11.600;2022-09-09T00:03:42;6.45;;;2.30;;
26953;SDS011;14508;50.924;11.600;2022-09-09T00:06:15;3.67;;;2.53;;
26953;SDS011;14508;50.924;11.600;2022-09-09T00:08:49;5.07;;;2.47;;
26953;SDS011;14508;50.924;11.600;2022-09-09T00:11:26;3.40;;;2.05;;
26953;SDS011;14508;50.924;11.600;2022-09-09T00:13:59;7.00;;;2.50;;
26953;SDS011;14508;50.924;11.600;2022-09-09T00:16:29;3.97;;;2.22;;
26953;SDS011;14508;50.924;11.600;2022-09-09T00:19:04;5.55;;;2.72;;
26953;SDS011;14508;50.924;11.600;2022-09-09T00:21:35;2.22;;;2.03;;
26953;SDS011;14508;50.924;11.600;2022-09-09T00:24:08;5.90;;;2.50;;
26953;SDS011;14508;50.924;11.600;2022-09-09T00:26:40;9.45;;;2.22;;
26953;SDS011;14508;50.924;11.600;2022-09-09T00:29:10;8.48;;;2.83;;
26953;SDS011;14508;50.924;11.600;2022-09-09T00:31:46;10.80;;;2.42;;
26953;SDS011;14508;50.924;11.600;2022-09-09T00:34:15;5.45;;;2.15;;
26953;SDS011;14508;50.924;11.600;2022-09-09T00:36:45;3.33;;;2.05;;
26953;SDS011;14508;50.924;11.600;2022-09-09T00:39:18;5.28;;;2.10;;
26953;SDS011;14508;50.924;11.600;2022-09-09T00:41:55;11.38;;;2.00;;
26953;SDS011;14508;50.924;11.600;2022-09-09T00:44:36;4.43;;;2.20;;
26953;SDS011;14508;50.924;11.600;2022-09-09T00:47:09;5.45;;;2.92;;
26953;SDS011;14508;50.924;11.600;2022-09-09T00:49:51;4.85;;;1.92;;
26953;SDS011;14508;50.924;11.600;2022-09-09T00:52:26;6.97;;;3.00;;
26953;SDS011;14508;50.924;11.600;2022-09-09T00:55:03;4.00;;;2.50;;
26953;SDS011;14508;50.924;11.600;2022-09-09T00:57:35;9.32;;;2.90;;
26953;SDS011;14508;50.924;11.600;2022-09-09T01:00:16;9.85;;;2.53;;
26953;SDS011;14508;50.924;11.600;2022-09-09T01:02:48;5.35;;;2.70;;
26953;SDS011;14508;50.924;11.600;2022-09-09T01:05:38;7.75;;;2.38;;
26953;SDS011;14508;50.924;11.600;2022-09-09T01:08:11;6.72;;;2.22;;
26953;SDS011;14508;50.924;11.600;2022-09-09T01:10:50;7.32;;;2.10;;
26953;SDS011;14508;50.924;11.600;2022-09-09T01:13:23;3.63;;;2.30;;
26953;SDS011;14508;50.924;11.600;2022-09-09T01:15:53;5.68;;;2.40;;
26953;SDS011;14508;50.924;11.600;2022-09-09T01:22:11;7.47;;;2.88;;
26953;SDS011;14508;50.924;11.600;2022-09-09T01:25:01;3.13;;;2.05;;
26953;SDS011;14508;50.924;11.600;2022-09-09T01:28:00;4.10;;;2.30;;
26953;SDS011;14508;50.924;11.600;2022-09-09T01:30:30;6.28;;;2.50;;
26953;SDS011;14508;50.924;11.600;2022-09-09T01:32:59;6.35;;;2.78;;
26953;SDS011;14508;50.924;11.600;2022-09-09T01:35:32;5.25;;;2.20;;
26953;SDS011;14508;50.924;11.600;2022-09-09T01:38:04;5.72;;;2.45;;
26953;SDS011;14508;50.924;11.600;2022-09-09T01:40:32;3.25;;;2.00;;
26953;SDS011;14508;50.924;11.600;2022-09-09T01:43:01;4.30;;;2.00;;
26953;SDS011;14508;50.924;11.600;2022-09-09T01:45:29;18.67;;;2.75;;
26953;SDS011;14508;50.924;11.600;2022-09-09T01:47:57;4.88;;;1.90;;
26953;SDS011;14508;50.924;11.600;2022-09-09T01:50:38;6.90;;;2.33;;
26953;SDS011;14508;50.924;11.600;2022-09-09T01:53:06;3.70;;;1.88;;
26953;SDS011;14508;50.924;11.600;2022-09-09T01:55:36;5.45;;;2.33;;
26953;SDS011;14508;50.924;11.600;2022-09-09T01:58:19;4.75;;;2.00;;
26953;SDS011;14508;50.924;11.600;2022-09-09T02:00:56;5.80;;;2.10;;
26953;SDS011;14508;50.924;11.600;2022-09-09T02:03:31;3.47;;;2.42;;
26953;SDS011;14508;50.924;11.600;2022-09-09T02:06:11;5.28;;;2.20;;
26953;SDS011;14508;50.924;11.600;2022-09-09T02:08:49;2.45;;;1.80;;
26953;SDS011;14508;50.924;11.600;2022-09-09T02:11:18;8.93;;;2.42;;
26953;SDS011;14508;50.924;11.600;2022-09-09T02:13:56;9.23;;;2.10;;
26953;SDS011;14508;50.924;11.600;2022-09-09T02:16:27;3.65;;;2.10;;
26953;SDS011;14508;50.924;11.600;2022-09-09T02:19:00;4.95;;;2.10;;
26953;SDS011;14508;50.924;11.600;2022-09-09T02:21:39;6.97;;;2.38;;
26953;SDS011;14508;50.924;11.600;2022-09-09T02:24:08;5.68;;;2.67;;
26953;SDS011;14508;50.924;11.600;2022-09-09T02:26:41;4.40;;;1.98;;
26953;SDS011;14508;50.924;11.600;2022-09-09T02:29:14;4.32;;;2.20;;
26953;SDS011;14508;50.924;11.600;2022-09-09T02:31:46;5.05;;;2.13;;
26953;SDS011;14508;50.924;11.600;2022-09-09T02:34:20;6.70;;;2.20;;
26953;SDS011;14508;50.924;11.600;2022-09-09T02:36:49;8.73;;;2.47;;
26953;SDS011;14508;50.924;11.600;2022-09-09T02:39:19;9.02;;;1.88;;
26953;SDS011;14508;50.924;11.600;2022-09-09T02:41:48;9.77;;;2.90;;
26953;SDS011;14508;50.924;11.600;2022-09-09T02:44:17;11.77;;;2.47;;
26953;SDS011;14508;50.924;11.600;2022-09-09T02:46:54;5.18;;;2.60;;
26953;SDS011;14508;50.924;11.600;2022-09-09T02:49:33;7.10;;;2.30;;
26953;SDS011;14508;50.924;11.600;2022-09-09T02:52:07;3.05;;;1.80;;
26953;SDS011;14508;50.924;11.600;2022-09-09T02:54:40;5.78;;;2.30;;
26953;SDS011;14508;50.924;11.600;2022-09-09T02:57:11;9.02;;;2.38;;
26953;SDS011;14508;50.924;11.600;2022-09-09T02:59:44;4.32;;;1.83;;
26953;SDS011;14508;50.924;11.600;2022-09-09T03:02:11;6.80;;;1.55;;
26953;SDS011;14508;50.924;11.600;2022-09-09T03:04:40;3.83;;;2.08;;
26953;SDS011;14508;50.924;11.600;2022-09-09T03:07:10;6.55;;;1.95;;
26953;SDS011;14508;50.924;11.600;2022-09-09T03:09:37;12.10;;;3.00;;
26953;SDS011;14508;50.924;11.600;2022-09-09T03:12:04;10.52;;;3.47;;
26953;SDS011;14508;50.924;11.600;2022-09-09T03:14:33;3.85;;;1.77;;
26953;SDS011;14508;50.924;11.600;2022-09-09T03:17:01;6.13;;;2.00;;
26953;SDS011;14508;50.924;11.600;2022-09-09T03:19:34;3.65;;;1.58;;
26953;SDS011;14508;50.924;11.600;2022-09-09T03:22:03;6.97;;;1.83;;
26953;SDS011;14508;50.924;11.600;2022-09-09T03:24:33;9.48;;;3.13;;
26953;SDS011;14508;50.924;11.600;2022-09-09T03:27:03;7.28;;;1.75;;
26953;SDS011;14508;50.924;11.600;2022-09-09T03:29:30;2.22;;;1.95;;
26953;SDS011;14508;50.924;11.600;2022-09-09T03:32:02;5.30;;;1.67;;
26953;SDS011;14508;50.924;11.600;2022-09-09T03:34:29;4.18;;;1.80;;
26953;SDS011;14508;50.924;11.600;2022-09-09T03:36:57;5.95;;;1.50;;
26953;SDS011;14508;50.924;11.600;2022-09-09T03:39:26;7.18;;;1.20;;
26953;SDS011;14508;50.924;11.600;2022-09-09T03:41:53;3.72;;;0.95;;
26953;SDS011;14508;50.924;11.600;2022-09-09T03:44:20;3.45;;;1.50;;
26953;SDS011;14508;50.924;11.600;2022-09-09T03:46:47;4.97;;;1.67;;
26953;SDS011;14508;50.924;11.600;2022-09-09T03:49:15;3.17;;;1.17;;
26953;SDS011;14508;50.924;11.600;2022-09-09T03:51:42;10.60;;;1.90;;
26953;SDS011;14508;50.924;11.600;2022-09-09T03:54:11;4.10;;;1.30;;
26953;SDS011;14508;50.924;11.600;2022-09-09T03:56:39;4.03;;;1.65;;
26953;SDS011;14508;50.924;11.600;2022-09-09T03:59:08;7.15;;;2.00;;
26953;SDS011;14508;50.924;11.600;2022-09-09T04:01:35;5.97;;;1.60;;
26953;SDS011;14508;50.924;11.600;2022-09-09T04:04:02;5.38;;;1.90;;
26953;SDS011;14508;50.924;11.600;2022-09-09T04:06:30;5.43;;;1.52;;
26953;SDS011;14508;50.924;11.600;2022-09-09T04:08:57;8.27;;;2.50;;
26953;SDS011;14508;50.924;11.600;2022-09-09T04:11:25;4.72;;;1.58;;
26953;SDS011;14508;50.924;11.600;2022-09-09T04:13:54;4.43;;;1.90;;
26953;SDS011;14508;50.924;11.600;2022-09-09T04:16:21;8.20;;;1.90;;
26953;SDS011;14508;50.924;11.600;2022-09-09T04:18:48;3.88;;;1.90;;
26953;SDS011;14508;50.924;11.600;2022-09-09T04:21:16;11.60;;;1.98;;
26953;SDS011;14508;50.924;11.600;2022-09-09T04:23:44;9.38;;;2.10;;
26953;SDS011;14508;50.924;11.600;2022-09-09T04:26:10;5.28;;;2.05;;
26953;SDS011;14508;50.924;11.600;2022-09-09T04:28:38;5.78;;;1.90;;
26953;SDS011;14508;50.924;11.600;2022-09-09T04:31:13;7.43;;;1.80;;
26953;SDS011;14508;50.924;11.600;2022-09-09T04:33:43;8.93;;;1.60;;
26953;SDS011;14508;50.924;11.600;2022-09-09T04:36:11;9.10;;;2.13;;
26953;SDS011;14508;50.924;11.600;2022-09-09T04:38:38;6.47;;;2.00;;
26953;SDS011;14508;50.924;11.600;2022-09-09T04:41:06;4.47;;;1.50;;
26953;SDS011;14508;50.924;11.600;2022-09-09T04:43:36;3.08;;;1.70;;
26953;SDS011;14508;50.924;11.600;2022-09-09T04:46:05;7.22;;;1.95;;
26953;SDS011;14508;50.924;11.600;2022-09-09T04:48:32;4.05;;;1.63;;
26953;SDS011;14508;50.924;11.600;2022-09-09T04:51:00;16.05;;;2.53;;
26953;SDS011;14508;50.924;11.600;2022-09-09T04:53:30;5.78;;;2.28;;
26953;SDS011;14508;50.924;11.600;2022-09-09T04:56:02;10.18;;;2.00;;
26953;SDS011;14508;50.924;11.600;2022-09-09T04:58:34;7.60;;;1.43;;
26953;SDS011;14508;50.924;11.600;2022-09-09T05:01:05;5.95;;;2.45;;
26953;SDS011;14508;50.924;11.600;2022-09-09T05:03:32;5.88;;;1.70;;
26953;SDS011;14508;50.924;11.600;2022-09-09T05:06:04;9.18;;;2.35;;
26953;SDS011;14508;50.924;11.600;2022-09-09T05:08:32;5.43;;;2.20;;
26953;SDS011;14508;50.924;11.600;2022-09-09T05:10:58;15.57;;;2.50;;
26953;SDS011;14508;50.924;11.600;2022-09-09T05:13:25;2.55;;;1.88;;
26953;SDS011;14508;50.924;11.600;2022-09-09T05:15:54;4.45;;;1.70;;
26953;SDS011;14508;50.924;11.600;2022-09-09T05:18:21;4.90;;;1.75;;
26953;SDS011;14508;50.924;11.600;2022-09-09T05:20:48;10.32;;;2.33;;
26953;SDS011;14508;50.924;11.600;2022-09-09T05:23:16;7.10;;;2.22;;
26953;SDS011;14508;50.924;11.600;2022-09-09T05:25:43;5.78;;;2.20;;
26953;SDS011;14508;50.924;11.600;2022-09-09T05:28:12;5.50;;;1.90;;
26953;SDS011;14508;50.924;11.600;2022-09-09T05:30:39;4.18;;;2.10;;
26953;SDS011;14508;50.924;11.600;2022-09-09T05:33:07;7.93;;;2.10;;
26953;SDS011;14508;50.924;11.600;2022-09-09T05:35:34;9.82;;;2.35;;
26953;SDS011;14508;50.924;11.600;2022-09-09T05:38:01;9.85;;;3.05;;
26953;SDS011;14508;50.924;11.600;2022-09-09T05:40:28;9.25;;;2.85;;
26953;SDS011;14508;50.924;11.600;2022-09-09T05:42:59;9.98;;;3.63;;
26953;SDS011;14508;50.924;11.600;2022-09-09T05:45:26;5.60;;;2.28;;
26953;SDS011;14508;50.924;11.600;2022-09-09T05:47:54;6.57;;;1.80;;
26953;SDS011;14508;50.924;11.600;2022-09-09T05:50:22;3.45;;;1.95;;
26953;SDS011;14508;50.924;11.600;2022-09-09T05:52:50;7.47;;;2.15;;
26953;SDS011;14508;50.924;11.600;2022-09-09T05:55:20;7.88;;;2.13;;
26953;SDS011;14508;50.924;11.600;2022-09-09T05:57:48;7.80;;;1.73;;
26953;SDS011;14508;50.924;11.600;2022-09-09T06:00:17;14.38;;;2.17;;
26953;SDS011;14508;50.924;11.600;2022-09-09T06:02:50;5.65;;;2.03;;
26953;SDS011;14508;50.924;11.600;2022-09-09T06:05:19;5.60;;;1.60;;
26953;SDS011;14508;50.924;11.600;2022-09-09T06:07:49;4.85;;;2.10;;
26953;SDS011;14508;50.924;11.600;2022-09-09T06:10:18;7.95;;;2.35;;
26953;SDS011;14508;50.924;11.600;2022-09-09T06:12:45;5.60;;;2.20;;
26953;SDS011;14508;50.924;11.600;2022-09-09T06:15:12;14.50;;;2.30;;
26953;SDS011;14508;50.924;11.600;2022-09-09T06:17:39;10.63;;;2.22;;
26953;SDS011;14508;50.924;11.600;2022-09-09T06:20:07;10.15;;;2.60;;
26953;SDS011;14508;50.924;11.600;2022-09-09T06:22:35;9.65;;;2.25;;
26953;SDS011;14508;50.924;11.600;2022-09-09T06:25:03;7.25;;;2.13;;
26953;SDS011;14508;50.924;11.600;2022-09-09T06:27:30;5.97;;;1.80;;
26953;SDS011;14508;50.924;11.600;2022-09-09T06:29:58;11.05;;;2.28;;
26953;SDS011;14508;50.924;11.600;2022-09-09T06:32:27;6.10;;;2.20;;
26953;SDS011;14508;50.924;11.600;2022-09-09T06:34:54;10.52;;;2.15;;
26953;SDS011;14508;50.924;11.600;2022-09-09T06:37:21;16.45;;;3.55;;
26953;SDS011;14508;50.924;11.600;2022-09-09T06:39:49;4.47;;;1.60;;
26953;SDS011;14508;50.924;11.600;2022-09-09T06:42:17;6.15;;;1.80;;
26953;SDS011;14508;50.924;11.600;2022-09-09T06:44:55;7.13;;;2.17;;
26953;SDS011;14508;50.924;11.600;2022-09-09T06:47:36;7.90;;;1.80;;
26953;SDS011;14508;50.924;11.600;2022-09-09T06:50:03;3.28;;;1.23;;
26953;SDS011;14508;50.924;11.600;2022-09-09T06:52:33;7.95;;;1.50;;
26953;SDS011;14508;50.924;11.600;2022-09-09T06:55:02;9.52;;;1.50;;
26953;SDS011;14508;50.924;11.600;2022-09-09T06:57:32;9.95;;;2.03;;
26953;SDS011;14508;50.924;11.600;2022-09-09T07:00:00;2.20;;;1.15;;
26953;SDS011;14508;50.924;11.600;2022-09-09T07:02:27;4.57;;;1.80;;
26953;SDS011;14508;50.924;11.600;2022-09-09T07:04:53;5.75;;;1.27;;
26953;SDS011;14508;50.924;11.600;2022-09-09T07:07:23;5.65;;;0.95;;
26953;SDS011;14508;50.924;11.600;2022-09-09T07:09:51;9.02;;;1.35;;
26953;SDS011;14508;50.924;11.600;2022-09-09T07:12:17;3.08;;;0.98;;
26953;SDS011;14508;50.924;11.600;2022-09-09T07:14:53;2.33;;;0.90;;
26953;SDS011;14508;50.924;11.600;2022-09-09T07:17:20;3.35;;;1.20;;
26953;SDS011;14508;50.924;11.600;2022-09-09T07:19:47;10.45;;;1.40;;
26953;SDS011;14508;50.924;11.600;2022-09-09T07:22:15;3.95;;;1.63;;
26953;SDS011;14508;50.924;11.600;2022-09-09T07:24:42;5.15;;;1.70;;
26953;SDS011;14508;50.924;11.600;2022-09-09T07:27:11;6.30;;;1.27;;
26953;SDS011;14508;50.924;11.600;2022-09-09T07:29:39;4.13;;;1.30;;
26953;SDS011;14508;50.924;11.600;2022-09-09T07:32:08;3.75;;;0.80;;
26953;SDS011;14508;50.924;11.600;2022-09-09T07:34:36;3.85;;;1.50;;
26953;SDS011;14508;50.924;11.600;2022-09-09T07:37:04;4.95;;;1.05;;
26953;SDS011;14508;50.924;11.600;2022-09-09T07:39:32;2.88;;;1.08;;
26953;SDS011;14508;50.924;11.600;2022-09-09T07:41:59;3.00;;;1.02;;
26953;SDS011;14508;50.924;11.600;2022-09-09T07:44:26;1.42;;;0.80;;
26953;SDS011;14508;50.924;11.600;2022-09-09T07:47:03;6.50;;;0.73;;
26953;SDS011;14508;50.924;11.600;2022-09-09T07:49:36;3.72;;;1.02;;
26953;SDS011;14508;50.924;11.600;2022-09-09T07:52:05;3.90;;;1.00;;
26953;SDS011;14508;50.924;11.600;2022-09-09T07:54:32;3.63;;;1.08;;
26953;SDS011;14508;50.924;11.600;2022-09-09T07:57:02;3.85;;;1.13;;
26953;SDS011;14508;50.924;11.600;2022-09-09T07:59:31;2.25;;;1.00;;
26953;SDS011;14508;50.924;11.600;2022-09-09T08:01:58;2.60;;;0.93;;
26953;SDS011;14508;50.924;11.600;2022-09-09T08:04:28;2.22;;;1.02;;
26953;SDS011;14508;50.924;11.600;2022-09-09T08:06:56;6.00;;;1.20;;
26953;SDS011;14508;50.924;11.600;2022-09-09T08:09:25;4.90;;;1.13;;
26953;SDS011;14508;50.924;11.600;2022-09-09T08:11:59;4.50;;;1.13;;
26953;SDS011;14508;50.924;11.600;2022-09-09T08:14:28;7.22;;;1.10;;
26953;SDS011;14508;50.924;11.600;2022-09-09T08:16:56;5.85;;;0.95;;
26953;SDS011;14508;50.924;11.600;2022-09-09T08:19:25;6.25;;;1.00;;
26953;SDS011;14508;50.924;11.600;2022-09-09T08:21:55;4.70;;;1.27;;
26953;SDS011;14508;50.924;11.600;2022-09-09T08:24:22;6.47;;;1.02;;
26953;SDS011;14508;50.924;11.600;2022-09-09T08:26:51;7.28;;;1.23;;
26953;SDS011;14508;50.924;11.600;2022-09-09T08:29:21;6.13;;;1.08;;
26953;SDS011;14508;50.924;11.600;2022-09-09T08:31:50;8.18;;;1.20;;
26953;SDS011;14508;50.924;11.600;2022-09-09T08:34:20;2.53;;;0.80;;
26953;SDS011;14508;50.924;11.600;2022-09-09T08:36:49;5.75;;;1.20;;
26953;SDS011;14508;50.924;11.600;2022-09-09T08:39:21;4.13;;;0.90;;
26953;SDS011;14508;50.924;11.600;2022-09-09T08:41:58;7.95;;;1.10;;
26953;SDS011;14508;50.924;11.600;2022-09-09T08:44:41;5.13;;;0.93;;
26953;SDS011;14508;50.924;11.600;2022-09-09T08:47:31;2.05;;;0.85;;
26953;SDS011;14508;50.924;11.600;2022-09-09T08:50:13;3.58;;;1.38;;
26953;SDS011;14508;50.924;11.600;2022-09-09T08:52:49;4.80;;;1.35;;
26953;SDS011;14508;50.924;11.600;2022-09-09T08:55:24;3.38;;;1.15;;
26953;SDS011;14508;50.924;11.600;2022-09-09T08:57:55;6.10;;;1.40;;
26953;SDS011;14508;50.924;11.600;2022-09-09T09:00:27;4.00;;;1.00;;
26953;SDS011;14508;50.924;11.600;2022-09-09T09:03:02;5.32;;;1.38;;
26953;SDS011;14508;50.924;11.600;2022-09-09T09:05:41;2.53;;;0.80;;
26953;SDS011;14508;50.924;11.600;2022-09-09T09:08:16;4.17;;;0.63;;
26953;SDS011;14508;50.924;11.600;2022-09-09T09:10:53;3.45;;;0.90;;
26953;SDS011;14508;50.924;11.600;2022-09-09T09:13:25;4.15;;;0.70;;
26953;SDS011;14508;50.924;11.600;2022-09-09T09:16:02;2.33;;;1.05;;
26953;SDS011;14508;50.924;11.600;2022-09-09T09:18:37;3.25;;;0.98;;
26953;SDS011;14508;50.924;11.600;2022-09-09T09:21:06;4.05;;;0.90;;
26953;SDS011;14508;50.924;11.600;2022-09-09T09:23:43;5.05;;;1.00;;
26953;SDS011;14508;50.924;11.600;2022-09-09T09:26:17;2.15;;;0.80;;
26953;SDS011;14508;50.924;11.600;2022-09-09T09:28:47;3.47;;;1.30;;
26953;SDS011;14508;50.924;11.600;2022-09-09T09:31:16;5.72;;;0.93;;
26953;SDS011;14508;50.924;11.600;2022-09-09T09:33:47;8.13;;;1.00;;
26953;SDS011;14508;50.924;11.600;2022-09-09T09:36:18;4.43;;;0.70;;
26953;SDS011;14508;50.924;11.600;2022-09-09T09:38:55;1.80;;;0.90;;
26953;SDS011;14508;50.924;11.600;2022-09-09T09:41:30;2.42;;;0.98;;
26953;SDS011;14508;50.924;11.600;2022-09-09T09:43:58;7.28;;;1.20;;
26953;SDS011;14508;50.924;11.600;2022-09-09T09:46:27;7.93;;;1.83;;
26953;SDS011;14508;50.924;11.600;2022-09-09T09:49:08;5.55;;;0.70;;
26953;SDS011;14508;50.924;11.600;2022-09-09T09:51:37;6.13;;;1.10;;
26953;SDS011;14508;50.924;11.600;2022-09-09T09:54:07;4.63;;;0.70;;
26953;SDS011;14508;50.924;11.600;2022-09-09T09:56:44;3.10;;;1.00;;
26953;SDS011;14508;50.924;11.600;2022-09-09T09:59:20;4.82;;;0.75;;
26953;SDS011;14508;50.924;11.600;2022-09-09T10:02:05;6.38;;;0.90;;
26953;SDS011;14508;50.924;11.600;2022-09-09T10:04:40;7.00;;;0.70;;
26953;SDS011;14508;50.924;11.600;2022-09-09T10:07:09;3.95;;;0.60;;
26953;SDS011;14508;50.924;11.600;2022-09-09T10:09:37;3.60;;;0.73;;
26953;SDS011;14508;50.924;11.600;2022-09-09T10:12:08;6.65;;;0.80;;
26953;SDS011;14508;50.924;11.600;2022-09-09T10:14:43;3.95;;;0.75;;
26953;SDS011;14508;50.924;11.600;2022-09-09T10:17:18;4.40;;;1.13;;
26953;SDS011;14508;50.924;11.600;2022-09-09T10:19:56;7.63;;;0.82;;
26953;SDS011;14508;50.924;11.600;2022-09-09T10:22:33;6.90;;;0.60;;
26953;SDS011;14508;50.924;11.600;2022-09-09T10:28:05;4.47;;;1.10;;
26953;SDS011;14508;50.924;11.600;2022-09-09T10:30:50;4.68;;;1.15;;
26953;SDS011;14508;50.924;11.600;2022-09-09T10:33:24;3.65;;;0.60;;
26953;SDS011;14508;50.924;11.600;2022-09-09T10:35:59;7.32;;;0.90;;
26953;SDS011;14508;50.924;11.600;2022-09-09T10:38:34;3.60;;;0.88;;
26953;SDS011;14508;50.924;11.600;2022-09-09T10:41:09;3.30;;;0.68;;
26953;SDS011;14508;50.924;11.600;2022-09-09T10:43:48;6.68;;;1.63;;
26953;SDS011;14508;50.924;11.600;2022-09-09T10:46:27;8.18;;;1.33;;
26953;SDS011;14508;50.924;11.600;2022-09-09T10:49:08;3.03;;;0.75;;
26953;SDS011;14508;50.924;11.600;2022-09-09T10:51:45;3.80;;;0.82;;
26953;SDS011;14508;50.924;11.600;2022-09-09T10:54:24;12.13;;;1.08;;
26953;SDS011;14508;50.924;11.600;2022-09-09T10:56:58;7.25;;;0.80;;
26953;SDS011;14508;50.924;11.600;2022-09-09T10:59:31;2.47;;;0.60;;
26953;SDS011;14508;50.924;11.600;2022-09-09T11:02:02;3.80;;;0.80;;
26953;SDS011;14508;50.924;11.600;2022-09-09T11:04:32;3.55;;;0.60;;
26953;SDS011;14508;50.924;11.600;2022-09-09T11:07:05;5.30;;;0.65;;
26953;SDS011;14508;50.924;11.600;2022-09-09T11:09:37;8.32;;;1.02;;
26953;SDS011;14508;50.924;11.600;2022-09-09T11:12:17;3.78;;;0.70;;
26953;SDS011;14508;50.924;11.600;2022-09-09T11:14:48;4.35;;;0.70;;
26953;SDS011;14508;50.924;11.600;2022-09-09T11:17:20;3.28;;;0.60;;
26953;SDS011;14508;50.924;11.600;2022-09-09T11:19:51;5.82;;;0.90;;
26953;SDS011;14508;50.924;11.600;2022-09-09T11:22:19;2.63;;;0.40;;
26953;SDS011;14508;50.924;11.600;2022-09-09T11:24:54;3.40;;;0.60;;
26953;SDS011;14508;50.924;11.600;2022-09-09T11:27:27;7.18;;;0.70;;
26953;SDS011;14508;50.924;11.600;2022-09-09T11:30:11;2.90;;;0.60;;
26953;SDS011;14508;50.924;11.600;2022-09-09T11:32:57;3.17;;;0.63;;
26953;SDS011;14508;50.924;11.600;2022-09-09T11:35:49;1.90;;;0.40;;
26953;SDS011;14508;50.924;11.600;2022-09-09T11:38:26;5.38;;;0.70;;
26953;SDS011;14508;50.924;11.600;2022-09-09T11:40:53;6.28;;;0.88;;
26953;SDS011;14508;50.924;11.600;2022-09-09T11:43:25;2.38;;;0.75;;
26953;SDS011;14508;50.924;11.600;2022-09-09T11:45:58;5.45;;;0.52;;
26953;SDS011;14508;50.924;11.600;2022-09-09T11:48:29;2.47;;;0.90;;
26953;SDS011;14508;50.924;11.600;2022-09-09T11:50:59;7.15;;;1.45;;
26953;SDS011;14508;50.924;11.600;2022-09-09T11:53:30;2.35;;;0.57;;
26953;SDS011;14508;50.924;11.600;2022-09-09T11:58:53;3.17;;;0.73;;
26953;SDS011;14508;50.924;11.600;2022-09-09T12:01:33;3.55;;;0.60;;
26953;SDS011;14508;50.924;11.600;2022-09-09T12:04:12;13.55;;;0.80;;
26953;SDS011;14508;50.924;11.600;2022-09-09T12:06:44;3.10;;;0.90;;
26953;SDS011;14508;50.924;11.600;2022-09-09T12:09:26;3.85;;;1.00;;
26953;SDS011;14508;50.924;11.600;2022-09-09T12:12:21;3.13;;;0.45;;
26953;SDS011;14508;50.924;11.600;2022-09-09T12:17:55;4.88;;;1.35;;
26953;SDS011;14508;50.924;11.600;2022-09-09T12:20:23;3.72;;;0.50;;
26953;SDS011;14508;50.924;11.600;2022-09-09T12:23:01;5.28;;;0.60;;
26953;SDS011;14508;50.924;11.600;2022-09-09T12:25:43;4.25;;;0.57;;
26953;SDS011;14508;50.924;11.600;2022-09-09T12:28:30;1.05;;;0.40;;
26953;SDS011;14508;50.924;11.600;2022-09-09T12:31:08;2.00;;;0.40;;
26953;SDS011;14508;50.924;11.600;2022-09-09T12:33:44;1.92;;;0.30;;
26953;SDS011;14508;50.924;11.600;2022-09-09T12:36:13;1.75;;;0.60;;
26953;SDS011;14508;50.924;11.600;2022-09-09T12:38:43;3.85;;;0.68;;
26953;SDS011;14508;50.924;11.600;2022-09-09T12:41:17;0.82;;;0.32;;
26953;SDS011;14508;50.924;11.600;2022-09-09T12:43:46;1.73;;;0.30;;
26953;SDS011;14508;50.924;11.600;2022-09-09T12:46:15;4.53;;;0.50;;
26953;SDS011;14508;50.924;11.600;2022-09-09T12:48:52;1.92;;;0.40;;
26953;SDS011;14508;50.924;11.600;2022-09-09T12:51:21;3.33;;;0.70;;
26953;SDS011;14508;50.924;11.600;2022-09-09T12:53:51;2.13;;;0.57;;
26953;SDS011;14508;50.924;11.600;2022-09-09T12:56:19;2.58;;;0.50;;
26953;SDS011;14508;50.924;11.600;2022-09-09T12:58:48;3.63;;;0.52;;
26953;SDS011;14508;50.924;11.600;2022-09-09T13:01:18;2.25;;;0.40;;
26953;SDS011;14508;50.924;11.600;2022-09-09T13:03:47;6.22;;;0.63;;
26953;SDS011;14508;50.924;11.600;2022-09-09T13:06:18;2.60;;;0.60;;
26953;SDS011;14508;50.924;11.600;2022-09-09T13:08:48;4.30;;;0.50;;
26953;SDS011;14508;50.924;11.600;2022-09-09T13:11:15;4.13;;;0.80;;
26953;SDS011;14508;50.924;11.600;2022-09-09T13:13:49;3.72;;;0.80;;
26953;SDS011;14508;50.924;11.600;2022-09-09T13:16:18;2.45;;;0.60;;
26953;SDS011;14508;50.924;11.600;2022-09-09T13:18:47;3.50;;;0.85;;
26953;SDS011;14508;50.924;11.600;2022-09-09T13:21:15;3.28;;;0.52;;
26953;SDS011;14508;50.924;11.600;2022-09-09T13:23:47;2.97;;;0.65;;
26953;SDS011;14508;50.924;11.600;2022-09-09T13:26:22;2.00;;;0.60;;
26953;SDS011;14508;50.924;11.600;2022-09-09T13:31:22;3.92;;;0.60;;
26953;SDS011;14508;50.924;11.600;2022-09-09T13:33:52;1.73;;;0.40;;
26953;SDS011;14508;50.924;11.600;2022-09-09T13:36:27;2.20;;;0.50;;
26953;SDS011;14508;50.924;11.600;2022-09-09T13:38:57;1.65;;;0.50;;
26953;SDS011;14508;50.924;11.600;2022-09-09T13:41:34;1.75;;;0.60;;
26953;SDS011;14508;50.924;11.600;2022-09-09T13:44:02;1.80;;;0.82;;
26953;SDS011;14508;50.924;11.600;2022-09-09T13:46:32;4.30;;;0.50;;
26953;SDS011;14508;50.924;11.600;2022-09-09T13:49:01;4.50;;;0.50;;
26953;SDS011;14508;50.924;11.600;2022-09-09T13:51:45;6.72;;;0.63;;
26953;SDS011;14508;50.924;11.600;2022-09-09T13:54:17;2.40;;;0.50;;
26953;SDS011;14508;50.924;11.600;2022-09-09T13:56:45;2.58;;;0.50;;
26953;SDS011;14508;50.924;11.600;2022-09-09T13:59:15;3.80;;;0.63;;
26953;SDS011;14508;50.924;11.600;2022-09-09T14:01:44;3.25;;;0.43;;
26953;SDS011;14508;50.924;11.600;2022-09-09T14:04:11;6.30;;;0.70;;
26953;SDS011;14508;50.924;11.600;2022-09-09T14:06:39;3.50;;;0.63;;
26953;SDS011;14508;50.924;11.600;2022-09-09T14:09:06;6.65;;;1.85;;
26953;SDS011;14508;50.924;11.600;2022-09-09T14:11:35;2.92;;;0.52;;
26953;SDS011;14508;50.924;11.600;2022-09-09T14:14:02;5.45;;;0.63;;
26953;SDS011;14508;50.924;11.600;2022-09-09T14:16:29;3.78;;;0.90;;
26953;SDS011;14508;50.924;11.600;2022-09-09T14:18:56;2.13;;;0.47;;
26953;SDS011;14508;50.924;11.600;2022-09-09T14:21:24;1.92;;;0.75;;
26953;SDS011;14508;50.924;11.600;2022-09-09T14:23:51;2.75;;;0.60;;
26953;SDS011;14508;50.924;11.600;2022-09-09T14:26:18;2.03;;;0.60;;
26953;SDS011;14508;50.924;11.600;2022-09-09T14:28:47;3.50;;;0.65;;
26953;SDS011;14508;50.924;11.600;2022-09-09T14:31:15;2.83;;;0.30;;
26953;SDS011;14508;50.924;11.600;2022-09-09T14:33:42;3.80;;;0.68;;
26953;SDS011;14508;50.924;11.600;2022-09-09T14:36:09;4.82;;;0.70;;
26953;SDS011;14508;50.924;11.600;2022-09-09T14:38:36;0.75;;;0.30;;
26953;SDS011;14508;50.924;11.600;2022-09-09T14:41:04;3.83;;;0.65;;
26953;SDS011;14508;50.924;11.600;2022-09-09T14:43:31;1.40;;;0.20;;
26953;SDS011;14508;50.924;11.600;2022-09-09T14:46:05;3.40;;;0.45;;
26953;SDS011;14508;50.924;11.600;2022-09-09T14:48:32;1.63;;;0.40;;
26953;SDS011;14508;50.924;11.600;2022-09-09T14:51:04;3.92;;;0.60;;
26953;SDS011;14508;50.924;11.600;2022-09-09T14:53:32;4.68;;;0.45;;
26953;SDS011;14508;50.924;11.600;2022-09-09T14:56:02;2.28;;;0.40;;
26953;SDS011;14508;50.924;11.600;2022-09-09T14:58:31;1.17;;;0.35;;
26953;SDS011;14508;50.924;11.600;2022-09-09T15:01:01;2.03;;;0.65;;
26953;SDS011;14508;50.924;11.600;2022-09-09T15:03:31;2.17;;;1.08;;
26953;SDS011;14508;50.924;11.600;2022-09-09T15:05:58;1.77;;;0.50;;
26953;SDS011;14508;50.924;11.600;2022-09-09T15:08:30;1.77;;;0.40;;
26953;SDS011;14508;50.924;11.600;2022-09-09T15:10:58;2.58;;;0.45;;
26953;SDS011;14508;50.924;11.600;2022-09-09T15:13:26;1.25;;;0.40;;